sensor_id;sensor_type;location;lat;lon;timestamp;pressure;altitude;pressure_sealevel;temperature;humidity
66021;BME280;52789;59.980;30.346;2023-04-15T00:00:52;102914.28;;;0.81;42.42
66021;BME280;52789;59.980;30.346;2023-04-15T00:03:19;102917.81;;;0.80;41.95
66021;BME280;52789;59.980;30.346;2023-04-15T00:05:45;102913.50;;;0.78;42.29
66021;BME280;52789;59.980;30.346;2023-04-15T00:08:10;102912.66;;;0.77;42.29
66021;BME280;52789;59.980;30.346;2023-04-15T00:10:36;102912.75;;;0.74;42.77
66021;BME280;52789;59.980;30.346;2023-04-15T00:13:02;102912.75;;;0.74;42.45
66021;BME280;52789;59.980;30.346;2023-04-15T00:15:28;102917.13;;;0.74;42.59
66021;BME280;52789;59.980;30.346;2023-04-15T00:17:53;102911.88;;;0.74;42.61
66021;BME280;52789;59.980;30.346;2023-04-15T00:20:19;102912.75;;;0.74;42.41
66021;BME280;52789;59.980;30.346;2023-04-15T00:22:44;102909.31;;;0.72;42.70
66021;BME280;52789;59.980;30.346;2023-04-15T00:25:10;102919.91;;;0.69;42.72
66021;BME280;52789;59.980;30.346;2023-04-15T00:27:37;102920.81;;;0.68;43.03
66021;BME280;52789;59.980;30.346;2023-04-15T00:30:02;102915.56;;;0.68;42.92
66021;BME280;52789;59.980;30.346;2023-04-15T00:32:28;102917.28;;;0.69;42.68
66021;BME280;52789;59.980;30.346;2023-04-15T00:34:54;102922.47;;;0.71;42.96
66021;BME280;52789;59.980;30.346;2023-04-15T00:37:19;102932.13;;;0.70;42.49
66021;BME280;52789;59.980;30.346;2023-04-15T00:39:44;102919.09;;;0.67;43.08
66021;BME280;52789;59.980;30.346;2023-04-15T00:42:10;102919.09;;;0.67;42.95
66021;BME280;52789;59.980;30.346;2023-04-15T00:44:36;102929.63;;;0.66;43.38
66021;BME280;52789;59.980;30.346;2023-04-15T00:47:01;102926.16;;;0.65;42.92
66021;BME280;52789;59.980;30.346;2023-04-15T00:49:28;102927.88;;;0.66;42.77
66021;BME280;52789;59.980;30.346;2023-04-15T00:51:53;102934.88;;;0.66;43.26
66021;BME280;52789;59.980;30.346;2023-04-15T00:54:18;102934.03;;;0.65;43.01
66021;BME280;52789;59.980;30.346;2023-04-15T00:56:44;102934.97;;;0.63;42.82
66021;BME280;52789;59.980;30.346;2023-04-15T00:59:09;102934.03;;;0.65;43.10
66021;BME280;52789;59.980;30.346;2023-04-15T01:01:36;102941.16;;;0.60;42.57
66021;BME280;52789;59.980;30.346;2023-04-15T01:04:01;102935.97;;;0.58;42.67
66021;BME280;52789;59.980;30.346;2023-04-15T01:06:27;102934.22;;;0.59;42.78
66021;BME280;52789;59.980;30.346;2023-04-15T01:08:53;102938.53;;;0.60;42.55
66021;BME280;52789;59.980;30.346;2023-04-15T01:11:19;102936.78;;;0.60;43.11
66021;BME280;52789;59.980;30.346;2023-04-15T01:13:45;102935.13;;;0.58;43.19
66021;BME280;52789;59.980;30.346;2023-04-15T01:16:10;102934.97;;;0.63;43.04
66021;BME280;52789;59.980;30.346;2023-04-15T01:18:37;102931.53;;;0.60;42.94
66021;BME280;52789;59.980;30.346;2023-04-15T01:21:04;102932.44;;;0.59;43.23
66021;BME280;52789;59.980;30.346;2023-04-15T01:23:29;102932.41;;;0.61;43.55
66021;BME280;52789;59.980;30.346;2023-04-15T01:25:55;102934.06;;;0.64;43.30
66021;BME280;52789;59.980;30.346;2023-04-15T01:28:21;102934.16;;;0.60;42.81
66021;BME280;52789;59.980;30.346;2023-04-15T01:30:46;102937.53;;;0.64;42.89
66021;BME280;52789;59.980;30.346;2023-04-15T01:33:12;102944.50;;;0.65;43.55
66021;BME280;52789;59.980;30.346;2023-04-15T01:35:56;102931.41;;;0.65;43.04
66021;BME280;52789;59.980;30.346;2023-04-15T01:38:21;102936.69;;;0.64;43.10
66021;BME280;52789;59.980;30.346;2023-04-15T01:40:47;102929.69;;;0.64;43.63
66021;BME280;52789;59.980;30.346;2023-04-15T01:43:14;102942.88;;;0.61;43.35
66021;BME280;52789;59.980;30.346;2023-04-15T01:45:40;102931.25;;;0.70;43.41
66021;BME280;52789;59.980;30.346;2023-04-15T01:48:07;102927.78;;;0.69;42.93
66021;BME280;52789;59.980;30.346;2023-04-15T01:50:35;102930.41;;;0.69;43.15
66021;BME280;52789;59.980;30.346;2023-04-15T01:53:03;102923.53;;;0.65;43.10
66021;BME280;52789;59.980;30.346;2023-04-15T01:55:30;102923.53;;;0.65;43.37
66021;BME280;52789;59.980;30.346;2023-04-15T01:57:57;102925.44;;;0.60;43.47
66021;BME280;52789;59.980;30.346;2023-04-15T02:00:23;102927.19;;;0.59;43.08
66021;BME280;52789;59.980;30.346;2023-04-15T02:02:50;102935.06;;;0.59;42.76
66021;BME280;52789;59.980;30.346;2023-04-15T02:05:17;102930.69;;;0.60;42.82
66021;BME280;52789;59.980;30.346;2023-04-15T02:07:44;102935.94;;;0.60;43.07
66021;BME280;52789;59.980;30.346;2023-04-15T02:10:11;102934.97;;;0.63;43.30
66021;BME280;52789;59.980;30.346;2023-04-15T02:12:38;102937.63;;;0.61;43.06
66021;BME280;52789;59.980;30.346;2023-04-15T02:15:06;102939.34;;;0.62;43.90
66021;BME280;52789;59.980;30.346;2023-04-15T02:17:33;102942.88;;;0.61;43.06
66021;BME280;52789;59.980;30.346;2023-04-15T02:20:00;102946.31;;;0.63;43.42
66021;BME280;52789;59.980;30.346;2023-04-15T02:22:26;102947.19;;;0.64;43.05
66021;BME280;52789;59.980;30.346;2023-04-15T02:24:53;102935.75;;;0.66;42.87
66021;BME280;52789;59.980;30.346;2023-04-15T02:27:19;102943.59;;;0.66;43.03
66021;BME280;52789;59.980;30.346;2023-04-15T02:29:47;102937.44;;;0.67;43.07
66021;BME280;52789;59.980;30.346;2023-04-15T02:32:16;102945.28;;;0.69;43.26
66021;BME280;52789;59.980;30.346;2023-04-15T02:34:43;102941.75;;;0.70;43.12
66021;BME280;52789;59.980;30.346;2023-04-15T02:37:11;102949.56;;;0.71;43.53
66021;BME280;52789;59.980;30.346;2023-04-15T02:39:38;102947.75;;;0.73;43.05
66021;BME280;52789;59.980;30.346;2023-04-15T02:42:04;102939.84;;;0.75;43.18
66021;BME280;52789;59.980;30.346;2023-04-15T02:44:31;102948.56;;;0.75;43.09
66021;BME280;52789;59.980;30.346;2023-04-15T02:46:58;102945.00;;;0.78;43.13
66021;BME280;52789;59.980;30.346;2023-04-15T02:49:24;102945.84;;;0.78;42.63
66021;BME280;52789;59.980;30.346;2023-04-15T02:51:51;102944.94;;;0.79;42.55
66021;BME280;52789;59.980;30.346;2023-04-15T02:54:18;102937.97;;;0.78;42.71
66021;BME280;52789;59.980;30.346;2023-04-15T02:56:45;102945.69;;;0.83;42.95
66021;BME280;52789;59.980;30.346;2023-04-15T02:59:11;102947.47;;;0.82;42.97
66021;BME280;52789;59.980;30.346;2023-04-15T03:01:38;102947.38;;;0.85;42.62
66021;BME280;52789;59.980;30.346;2023-04-15T03:04:04;102945.59;;;0.87;43.27
66021;BME280;52789;59.980;30.346;2023-04-15T03:06:34;102943.69;;;0.92;42.86
66021;BME280;52789;59.980;30.346;2023-04-15T03:09:00;102951.66;;;0.89;42.25
66021;BME280;52789;59.980;30.346;2023-04-15T03:11:31;102941.97;;;0.91;42.47
66021;BME280;52789;59.980;30.346;2023-04-15T03:13:57;102947.09;;;0.95;42.37
66021;BME280;52789;59.980;30.346;2023-04-15T03:16:24;102955.75;;;0.98;42.59
66021;BME280;52789;59.980;30.346;2023-04-15T03:18:51;102955.59;;;1.03;42.43
66021;BME280;52789;59.980;30.346;2023-04-15T03:21:17;102958.97;;;1.06;42.27
66021;BME280;52789;59.980;30.346;2023-04-15T03:23:45;102950.16;;;1.09;42.52
66021;BME280;52789;59.980;30.346;2023-04-15T03:26:22;102952.66;;;1.12;42.07
66021;BME280;52789;59.980;30.346;2023-04-15T03:28:49;102958.66;;;1.17;41.95
66021;BME280;52789;59.980;30.346;2023-04-15T03:31:15;102953.47;;;1.14;42.19
66021;BME280;52789;59.980;30.346;2023-04-15T03:33:42;102955.13;;;1.18;41.76
66021;BME280;52789;59.980;30.346;2023-04-15T03:36:08;102957.81;;;1.16;41.74
66021;BME280;52789;59.980;30.346;2023-04-15T03:38:35;102964.78;;;1.17;41.79
66021;BME280;52789;59.980;30.346;2023-04-15T03:41:02;102955.03;;;1.21;42.00
66021;BME280;52789;59.980;30.346;2023-04-15T03:43:28;102967.16;;;1.25;41.96
66021;BME280;52789;59.980;30.346;2023-04-15T03:45:55;102961.78;;;1.28;41.47
66021;BME280;52789;59.980;30.346;2023-04-15T03:48:21;102965.13;;;1.33;42.07
66021;BME280;52789;59.980;30.346;2023-04-15T03:50:48;102962.44;;;1.35;41.96
66021;BME280;52789;59.980;30.346;2023-04-15T03:53:14;102968.34;;;1.41;42.04
66021;BME280;52789;59.980;30.346;2023-04-15T03:55:41;102959.38;;;1.48;41.70
66021;BME280;52789;59.980;30.346;2023-04-15T03:58:07;102968.88;;;1.52;41.46
66021;BME280;52789;59.980;30.346;2023-04-15T04:00:38;102941.81;;;1.50;41.12
66021;BME280;52789;59.980;30.346;2023-04-15T04:03:05;102964.91;;;1.66;41.44
66021;BME280;52789;59.980;30.346;2023-04-15T04:05:31;102967.53;;;1.66;41.05
66021;BME280;52789;59.980;30.346;2023-04-15T04:07:58;102968.28;;;1.69;41.17
66021;BME280;52789;59.980;30.346;2023-04-15T04:10:25;102967.16;;;1.78;41.34
66021;BME280;52789;59.980;30.346;2023-04-15T04:12:51;102969.44;;;1.87;41.07
66021;BME280;52789;59.980;30.346;2023-04-15T04:15:18;102975.28;;;1.95;40.52
66021;BME280;52789;59.980;30.346;2023-04-15T04:17:44;102970.09;;;1.94;40.57
66021;BME280;52789;59.980;30.346;2023-04-15T04:20:11;102975.06;;;2.01;41.17
66021;BME280;52789;59.980;30.346;2023-04-15T04:22:38;102979.19;;;2.10;40.60
66021;BME280;52789;59.980;30.346;2023-04-15T04:25:08;102975.34;;;2.18;40.75
66021;BME280;52789;59.980;30.346;2023-04-15T04:27:35;102975.19;;;2.23;40.25
66021;BME280;52789;59.980;30.346;2023-04-15T04:30:02;102978.72;;;2.22;40.00
66021;BME280;52789;59.980;30.346;2023-04-15T04:32:28;102979.69;;;2.20;40.30
66021;BME280;52789;59.980;30.346;2023-04-15T04:34:55;102982.28;;;2.21;39.67
66021;BME280;52789;59.980;30.346;2023-04-15T04:37:21;102973.19;;;2.30;39.56
66021;BME280;52789;59.980;30.346;2023-04-15T04:39:48;102977.34;;;2.37;39.96
66021;BME280;52789;59.980;30.346;2023-04-15T04:42:15;102978.88;;;2.42;39.33
66021;BME280;52789;59.980;30.346;2023-04-15T04:44:42;102978.47;;;2.53;39.64
66021;BME280;52789;59.980;30.346;2023-04-15T04:47:08;102985.31;;;2.57;39.42
66021;BME280;52789;59.980;30.346;2023-04-15T04:49:35;102980.94;;;2.58;38.62
66021;BME280;52789;59.980;30.346;2023-04-15T04:52:02;102985.81;;;2.68;39.18
66021;BME280;52789;59.980;30.346;2023-04-15T04:54:28;102984.66;;;2.75;38.26
66021;BME280;52789;59.980;30.346;2023-04-15T04:56:56;102986.25;;;2.79;38.55
66021;BME280;52789;59.980;30.346;2023-04-15T04:59:23;102986.81;;;2.88;38.52
66021;BME280;52789;59.980;30.346;2023-04-15T05:01:49;102986.97;;;2.83;38.76
66021;BME280;52789;59.980;30.346;2023-04-15T05:04:16;102988.59;;;2.87;38.76
66021;BME280;52789;59.980;30.346;2023-04-15T05:06:43;102983.72;;;3.00;38.59
66021;BME280;52789;59.980;30.346;2023-04-15T05:09:09;102996.09;;;2.98;37.88
66021;BME280;52789;59.980;30.346;2023-04-15T05:11:36;102994.38;;;2.97;38.02
66021;BME280;52789;59.980;30.346;2023-04-15T05:14:02;102976.63;;;3.02;38.02
66021;BME280;52789;59.980;30.346;2023-04-15T05:16:29;102989.84;;;3.00;38.01
66021;BME280;52789;59.980;30.346;2023-04-15T05:18:56;102995.06;;;3.02;37.99
66021;BME280;52789;59.980;30.346;2023-04-15T05:21:22;102992.09;;;3.09;37.71
66021;BME280;52789;59.980;30.346;2023-04-15T05:23:49;102990.91;;;3.18;37.88
66021;BME280;52789;59.980;30.346;2023-04-15T05:26:15;102995.25;;;3.19;37.58
66021;BME280;52789;59.980;30.346;2023-04-15T05:28:42;102999.81;;;3.14;37.54
66021;BME280;52789;59.980;30.346;2023-04-15T05:31:09;102991.13;;;3.12;37.70
66021;BME280;52789;59.980;30.346;2023-04-15T05:33:36;102994.56;;;3.14;37.97
66021;BME280;52789;59.980;30.346;2023-04-15T05:36:02;102992.72;;;3.16;37.95
66021;BME280;52789;59.980;30.346;2023-04-15T05:38:29;102998.81;;;3.18;37.75
66021;BME280;52789;59.980;30.346;2023-04-15T05:40:55;102992.31;;;3.27;37.92
66021;BME280;52789;59.980;30.346;2023-04-15T05:43:22;102993.53;;;3.40;37.59
66021;BME280;52789;59.980;30.346;2023-04-15T05:45:49;103000.22;;;3.49;37.38
66021;BME280;52789;59.980;30.346;2023-04-15T05:48:15;102996.94;;;3.64;37.10
66021;BME280;52789;59.980;30.346;2023-04-15T05:50:42;103000.63;;;3.60;36.85
66021;BME280;52789;59.980;30.346;2023-04-15T05:53:08;103001.34;;;3.63;36.63
66021;BME280;52789;59.980;30.346;2023-04-15T05:55:35;102995.63;;;3.74;37.03
66021;BME280;52789;59.980;30.346;2023-04-15T05:58:02;102997.78;;;3.86;36.82
66021;BME280;52789;59.980;30.346;2023-04-15T06:00:29;102994.22;;;3.87;36.09
66021;BME280;52789;59.980;30.346;2023-04-15T06:02:57;102992.88;;;3.97;36.72
66021;BME280;52789;59.980;30.346;2023-04-15T06:05:24;103001.88;;;4.14;36.00
66021;BME280;52789;59.980;30.346;2023-04-15T06:07:51;103001.31;;;4.26;35.77
66021;BME280;52789;59.980;30.346;2023-04-15T06:10:18;103000.59;;;4.22;35.58
66021;BME280;52789;59.980;30.346;2023-04-15T06:12:44;103000.31;;;4.28;35.22
66021;BME280;52789;59.980;30.346;2023-04-15T06:15:11;103002.91;;;4.30;35.71
66021;BME280;52789;59.980;30.346;2023-04-15T06:20:59;103013.78;;;4.61;35.11
66021;BME280;52789;59.980;30.346;2023-04-15T06:23:26;103012.22;;;4.57;34.60
66021;BME280;52789;59.980;30.346;2023-04-15T06:25:52;103010.66;;;4.53;34.68
66021;BME280;52789;59.980;30.346;2023-04-15T06:28:19;103015.50;;;4.62;34.90
66021;BME280;52789;59.980;30.346;2023-04-15T06:30:45;103007.25;;;4.70;34.57
66021;BME280;52789;59.980;30.346;2023-04-15T06:33:12;103007.97;;;4.74;34.44
66021;BME280;52789;59.980;30.346;2023-04-15T06:35:38;103002.78;;;4.72;34.10
66021;BME280;52789;59.980;30.346;2023-04-15T06:38:05;103013.53;;;4.68;34.24
66021;BME280;52789;59.980;30.346;2023-04-15T06:40:32;103010.72;;;4.52;34.09
66021;BME280;52789;59.980;30.346;2023-04-15T06:42:59;103005.38;;;4.53;34.44
66021;BME280;52789;59.980;30.346;2023-04-15T06:45:26;102994.22;;;4.67;34.41
66021;BME280;52789;59.980;30.346;2023-04-15T06:47:53;103000.56;;;4.82;33.87
66021;BME280;52789;59.980;30.346;2023-04-15T06:50:19;103002.13;;;4.86;33.62
66021;BME280;52789;59.980;30.346;2023-04-15T06:52:46;103000.41;;;5.04;33.83
66021;BME280;52789;59.980;30.346;2023-04-15T06:55:12;102995.25;;;5.19;33.58
66021;BME280;52789;59.980;30.346;2023-04-15T06:57:42;102996.38;;;5.33;33.32
66021;BME280;52789;59.980;30.346;2023-04-15T07:00:09;103001.53;;;5.36;33.36
66021;BME280;52789;59.980;30.346;2023-04-15T07:02:37;103002.00;;;5.44;32.76
66021;BME280;52789;59.980;30.346;2023-04-15T07:07:56;103002.50;;;5.52;32.27
66021;BME280;52789;59.980;30.346;2023-04-15T07:10:23;103007.16;;;5.64;33.17
66021;BME280;52789;59.980;30.346;2023-04-15T07:12:50;103016.81;;;5.65;32.44
66021;BME280;52789;59.980;30.346;2023-04-15T07:15:18;103014.78;;;5.70;33.17
66021;BME280;52789;59.980;30.346;2023-04-15T07:17:44;103005.84;;;5.73;32.18
66021;BME280;52789;59.980;30.346;2023-04-15T07:20:11;103010.50;;;5.68;32.21
66021;BME280;52789;59.980;30.346;2023-04-15T07:22:38;103016.19;;;5.60;32.77
66021;BME280;52789;59.980;30.346;2023-04-15T07:25:05;103015.41;;;5.58;32.54
66021;BME280;52789;59.980;30.346;2023-04-15T07:27:32;103015.25;;;5.61;32.33
66021;BME280;52789;59.980;30.346;2023-04-15T07:29:58;103000.31;;;5.77;33.19
66021;BME280;52789;59.980;30.346;2023-04-15T07:32:28;103009.00;;;5.81;31.93
66021;BME280;52789;59.980;30.346;2023-04-15T07:34:58;102995.03;;;5.60;32.42
66021;BME280;52789;59.980;30.346;2023-04-15T07:37:24;103015.72;;;5.69;32.85
66021;BME280;52789;59.980;30.346;2023-04-15T07:39:51;103018.28;;;5.71;32.15
66021;BME280;52789;59.980;30.346;2023-04-15T07:42:19;103013.97;;;5.87;32.61
66021;BME280;52789;59.980;30.346;2023-04-15T07:44:45;103014.91;;;6.03;31.56
66021;BME280;52789;59.980;30.346;2023-04-15T07:47:12;103019.19;;;6.06;31.96
66021;BME280;52789;59.980;30.346;2023-04-15T07:49:40;103019.13;;;6.07;31.97
66021;BME280;52789;59.980;30.346;2023-04-15T07:52:07;103011.56;;;6.17;32.19
66021;BME280;52789;59.980;30.346;2023-04-15T07:54:33;103014.81;;;6.39;31.58
66021;BME280;52789;59.980;30.346;2023-04-15T07:57:00;103017.91;;;6.47;31.67
66021;BME280;52789;59.980;30.346;2023-04-15T07:59:26;103019.47;;;6.51;31.65
66021;BME280;52789;59.980;30.346;2023-04-15T08:01:55;103023.66;;;6.56;31.14
66021;BME280;52789;59.980;30.346;2023-04-15T08:04:30;103012.88;;;6.59;30.93
66021;BME280;52789;59.980;30.346;2023-04-15T08:06:57;103016.00;;;6.67;30.87
66021;BME280;52789;59.980;30.346;2023-04-15T08:09:24;103025.56;;;6.69;31.25
66021;BME280;52789;59.980;30.346;2023-04-15T08:11:52;103017.38;;;6.74;30.52
66021;BME280;52789;59.980;30.346;2023-04-15T08:14:19;103017.03;;;6.80;31.06
66021;BME280;52789;59.980;30.346;2023-04-15T08:16:49;103015.09;;;6.83;31.75
66021;BME280;52789;59.980;30.346;2023-04-15T08:19:15;103013.81;;;6.91;31.16
66021;BME280;52789;59.980;30.346;2023-04-15T08:21:42;103010.97;;;6.94;30.71
66021;BME280;52789;59.980;30.346;2023-04-15T08:24:12;103017.25;;;7.08;31.11
66021;BME280;52789;59.980;30.346;2023-04-15T08:26:39;103012.03;;;7.07;30.33
66021;BME280;52789;59.980;30.346;2023-04-15T08:29:05;103008.69;;;7.03;30.37
66021;BME280;52789;59.980;30.346;2023-04-15T08:31:32;103005.53;;;7.12;30.35
66021;BME280;52789;59.980;30.346;2023-04-15T08:33:58;103000.41;;;7.25;30.46
66021;BME280;52789;59.980;30.346;2023-04-15T08:36:25;103006.97;;;7.18;31.28
66021;BME280;52789;59.980;30.346;2023-04-15T08:38:52;102997.91;;;7.22;30.84
66021;BME280;52789;59.980;30.346;2023-04-15T08:41:23;102998.75;;;7.23;30.79
66021;BME280;52789;59.980;30.346;2023-04-15T08:43:57;103003.66;;;7.30;30.46
66021;BME280;52789;59.980;30.346;2023-04-15T08:46:24;103003.84;;;7.27;30.35
66021;BME280;52789;59.980;30.346;2023-04-15T08:48:51;102996.66;;;7.29;30.24
66021;BME280;52789;59.980;30.346;2023-04-15T08:51:22;102996.06;;;7.24;29.57
66021;BME280;52789;59.980;30.346;2023-04-15T08:53:49;102992.88;;;7.18;29.95
66021;BME280;52789;59.980;30.346;2023-04-15T08:56:16;102983.31;;;7.31;29.78
66021;BME280;52789;59.980;30.346;2023-04-15T08:58:43;102996.34;;;7.50;30.54
66021;BME280;52789;59.980;30.346;2023-04-15T09:01:10;102996.69;;;7.59;29.86
66021;BME280;52789;59.980;30.346;2023-04-15T09:03:38;102989.13;;;7.67;29.04
66021;BME280;52789;59.980;30.346;2023-04-15T09:06:05;102986.19;;;7.72;29.04
66021;BME280;52789;59.980;30.346;2023-04-15T09:08:32;102984.50;;;7.71;28.96
66021;BME280;52789;59.980;30.346;2023-04-15T09:11:02;102985.44;;;7.70;29.50
66021;BME280;52789;59.980;30.346;2023-04-15T09:13:29;102985.91;;;7.46;29.35
66021;BME280;52789;59.980;30.346;2023-04-15T09:15:56;102983.53;;;7.42;29.62
66021;BME280;52789;59.980;30.346;2023-04-15T09:18:27;102980.78;;;7.43;28.82
66021;BME280;52789;59.980;30.346;2023-04-15T09:20:55;102988.25;;;7.53;28.80
66021;BME280;52789;59.980;30.346;2023-04-15T09:23:22;102985.63;;;7.67;28.88
66021;BME280;52789;59.980;30.346;2023-04-15T09:25:48;102987.06;;;7.72;28.41
66021;BME280;52789;59.980;30.346;2023-04-15T09:28:22;102988.59;;;7.76;29.12
66021;BME280;52789;59.980;30.346;2023-04-15T09:30:50;102980.28;;;7.83;29.01
66021;BME280;52789;59.980;30.346;2023-04-15T09:33:16;102979.72;;;7.92;30.12
66021;BME280;52789;59.980;30.346;2023-04-15T09:35:51;102979.56;;;8.09;29.55
66021;BME280;52789;59.980;30.346;2023-04-15T09:38:21;102981.44;;;8.07;28.96
66021;BME280;52789;59.980;30.346;2023-04-15T09:40:47;102984.00;;;8.08;29.10
66021;BME280;52789;59.980;30.346;2023-04-15T09:43:14;102986.41;;;8.27;28.80
66021;BME280;52789;59.980;30.346;2023-04-15T09:45:52;102988.94;;;8.45;28.42
66021;BME280;52789;59.980;30.346;2023-04-15T09:48:20;102981.16;;;8.42;28.83
66021;BME280;52789;59.980;30.346;2023-04-15T09:50:47;102980.34;;;8.25;29.35
66021;BME280;52789;59.980;30.346;2023-04-15T09:53:15;102970.78;;;8.23;28.84
66021;BME280;52789;59.980;30.346;2023-04-15T09:55:45;102982.72;;;8.16;28.32
66021;BME280;52789;59.980;30.346;2023-04-15T09:58:18;102983.81;;;7.97;28.32
66021;BME280;52789;59.980;30.346;2023-04-15T10:00:49;102974.81;;;8.00;28.49
66021;BME280;52789;59.980;30.346;2023-04-15T10:03:17;102985.81;;;8.08;28.59
66021;BME280;52789;59.980;30.346;2023-04-15T10:05:44;102986.66;;;7.94;28.55
66021;BME280;52789;59.980;30.346;2023-04-15T10:08:13;102977.56;;;7.98;29.26
66021;BME280;52789;59.980;30.346;2023-04-15T10:10:40;102981.00;;;8.15;28.87
66021;BME280;52789;59.980;30.346;2023-04-15T10:13:07;102979.81;;;8.34;29.51
66021;BME280;52789;59.980;30.346;2023-04-15T10:15:34;102988.38;;;8.40;29.43
66021;BME280;52789;59.980;30.346;2023-04-15T10:18:01;102983.72;;;8.43;28.79
66021;BME280;52789;59.980;30.346;2023-04-15T10:20:28;102976.97;;;8.52;28.98
66021;BME280;52789;59.980;30.346;2023-04-15T10:22:55;102979.47;;;8.69;28.92
66021;BME280;52789;59.980;30.346;2023-04-15T10:25:23;102972.03;;;8.60;29.03
66021;BME280;52789;59.980;30.346;2023-04-15T10:27:50;102983.81;;;8.56;28.37
66021;BME280;52789;59.980;30.346;2023-04-15T10:30:18;102977.25;;;8.61;29.30
66021;BME280;52789;59.980;30.346;2023-04-15T10:32:44;102977.91;;;8.65;28.17
66021;BME280;52789;59.980;30.346;2023-04-15T10:35:11;102975.84;;;8.70;27.88
66021;BME280;52789;59.980;30.346;2023-04-15T10:37:38;102969.19;;;8.63;28.47
66021;BME280;52789;59.980;30.346;2023-04-15T10:40:24;102974.31;;;8.52;28.16
66021;BME280;52789;59.980;30.346;2023-04-15T10:42:56;102970.53;;;8.56;29.12
66021;BME280;52789;59.980;30.346;2023-04-15T10:45:26;102972.78;;;8.62;27.58
66021;BME280;52789;59.980;30.346;2023-04-15T10:47:56;102960.75;;;8.71;28.36
66021;BME280;52789;59.980;30.346;2023-04-15T10:50:26;102964.72;;;8.78;28.27
66021;BME280;52789;59.980;30.346;2023-04-15T10:52:53;102965.03;;;8.73;28.06
66021;BME280;52789;59.980;30.346;2023-04-15T10:55:25;102968.53;;;8.59;28.00
66021;BME280;52789;59.980;30.346;2023-04-15T10:57:52;102960.09;;;8.53;27.39
66021;BME280;52789;59.980;30.346;2023-04-15T11:00:20;102963.91;;;8.49;28.36
66021;BME280;52789;59.980;30.346;2023-04-15T11:02:54;102964.75;;;8.35;28.07
66021;BME280;52789;59.980;30.346;2023-04-15T11:07:58;102958.25;;;8.25;28.63
66021;BME280;52789;59.980;30.346;2023-04-15T11:12:53;102963.91;;;8.49;28.92
66021;BME280;52789;59.980;30.346;2023-04-15T11:15:39;102957.72;;;8.34;28.40
66021;BME280;52789;59.980;30.346;2023-04-15T11:18:17;102958.63;;;8.33;28.63
66021;BME280;52789;59.980;30.346;2023-04-15T11:20:45;102959.44;;;8.35;27.05
66021;BME280;52789;59.980;30.346;2023-04-15T11:23:19;102959.53;;;8.33;27.15
66021;BME280;52789;59.980;30.346;2023-04-15T11:25:45;102950.88;;;8.30;27.19
66021;BME280;52789;59.980;30.346;2023-04-15T11:28:13;102946.06;;;8.36;26.76
66021;BME280;52789;59.980;30.346;2023-04-15T11:30:41;102948.97;;;8.32;27.04
66021;BME280;52789;59.980;30.346;2023-04-15T11:33:08;102943.31;;;8.38;27.25
66021;BME280;52789;59.980;30.346;2023-04-15T11:35:35;102947.97;;;8.49;27.48
66021;BME280;52789;59.980;30.346;2023-04-15T11:38:04;102953.06;;;8.66;26.98
66021;BME280;52789;59.980;30.346;2023-04-15T11:40:33;102958.84;;;8.58;27.02
66021;BME280;52789;59.980;30.346;2023-04-15T11:43:13;102944.56;;;8.47;27.46
66021;BME280;52789;59.980;30.346;2023-04-15T11:48:26;102946.13;;;8.21;27.48
66021;BME280;52789;59.980;30.346;2023-04-15T11:51:00;102949.34;;;8.26;27.10
66021;BME280;52789;59.980;30.346;2023-04-15T11:56:10;102926.31;;;8.26;27.81
66021;BME280;52789;59.980;30.346;2023-04-15T11:58:40;102929.44;;;8.33;27.26
66021;BME280;52789;59.980;30.346;2023-04-15T12:01:07;102935.53;;;8.35;27.28
66021;BME280;52789;59.980;30.346;2023-04-15T12:11:12;102919.03;;;8.16;27.42
66021;BME280;52789;59.980;30.346;2023-04-15T12:13:42;102916.16;;;8.19;27.98
66021;BME280;52789;59.980;30.346;2023-04-15T12:16:08;102904.97;;;8.28;27.78
66021;BME280;52789;59.980;30.346;2023-04-15T12:18:33;102916.44;;;8.28;28.26
66021;BME280;52789;59.980;30.346;2023-04-15T12:21:03;102912.66;;;8.32;28.16
66021;BME280;52789;59.980;30.346;2023-04-15T12:23:29;102911.91;;;8.16;28.10
66021;BME280;52789;59.980;30.346;2023-04-15T12:25:54;102913.81;;;8.14;27.82
66021;BME280;52789;59.980;30.346;2023-04-15T12:28:20;102911.34;;;8.25;28.81
66021;BME280;52789;59.980;30.346;2023-04-15T12:30:49;102909.06;;;8.33;28.39
66021;BME280;52789;59.980;30.346;2023-04-15T12:33:15;102909.09;;;8.48;27.82
66021;BME280;52789;59.980;30.346;2023-04-15T12:35:41;102907.94;;;8.52;28.15
66021;BME280;52789;59.980;30.346;2023-04-15T12:38:06;102893.09;;;8.62;27.96
66021;BME280;52789;59.980;30.346;2023-04-15T12:40:35;102894.41;;;8.83;27.72
66021;BME280;52789;59.980;30.346;2023-04-15T12:43:00;102891.84;;;8.82;28.08
66021;BME280;52789;59.980;30.346;2023-04-15T12:45:25;102897.47;;;8.77;27.74
66021;BME280;52789;59.980;30.346;2023-04-15T12:47:51;102897.34;;;8.79;28.42
66021;BME280;52789;59.980;30.346;2023-04-15T12:50:16;102887.72;;;8.90;28.15
66021;BME280;52789;59.980;30.346;2023-04-15T12:52:42;102899.41;;;8.88;27.70
66021;BME280;52789;59.980;30.346;2023-04-15T12:55:08;102897.59;;;8.88;26.76
66021;BME280;52789;59.980;30.346;2023-04-15T12:57:33;102892.28;;;8.88;26.48
66021;BME280;52789;59.980;30.346;2023-04-15T12:59:58;102888.84;;;9.00;26.05
66021;BME280;52789;59.980;30.346;2023-04-15T13:02:23;102886.84;;;9.04;25.85
66021;BME280;52789;59.980;30.346;2023-04-15T13:04:51;102894.38;;;8.97;26.79
66021;BME280;52789;59.980;30.346;2023-04-15T13:07:16;102888.03;;;9.13;26.17
66021;BME280;52789;59.980;30.346;2023-04-15T13:09:42;102883.19;;;9.32;26.68
66021;BME280;52789;59.980;30.346;2023-04-15T13:12:08;102885.44;;;9.25;25.47
66021;BME280;52789;59.980;30.346;2023-04-15T13:14:33;102881.25;;;9.21;26.26